createdAt,value
2023-01-31T00:01:07.504Z,5.60
2023-01-31T00:03:10.140Z,5.90
2023-01-31T00:05:12.733Z,6.82
2023-01-31T00:07:16.659Z,6.07
2023-01-31T00:09:19.913Z,6.03
2023-01-31T00:11:25.638Z,6.20
2023-01-31T00:13:28.679Z,5.53
2023-01-31T00:15:31.312Z,5.88
2023-01-31T00:17:33.908Z,5.65
2023-01-31T00:19:36.481Z,6.20
2023-01-31T00:21:43.584Z,6.07
2023-01-31T00:23:48.943Z,5.22
2023-01-31T00:25:51.529Z,5.93
2023-01-31T00:27:54.118Z,6.00
2023-01-31T00:29:56.668Z,5.78
2023-01-31T00:31:59.300Z,5.63
2023-01-31T00:34:02.141Z,5.32
2023-01-31T00:36:06.695Z,5.30
2023-01-31T00:38:09.268Z,5.50
2023-01-31T00:40:13.724Z,5.93
2023-01-31T00:42:19.312Z,5.10
2023-01-31T00:44:21.891Z,5.60
2023-01-31T00:46:24.640Z,5.15
2023-01-31T00:48:27.343Z,5.32
2023-01-31T00:50:29.913Z,5.45
2023-01-31T00:52:32.775Z,5.53
2023-01-31T00:54:35.599Z,5.15
2023-01-31T00:56:39.579Z,5.25
2023-01-31T00:58:42.213Z,4.85
2023-01-31T01:00:45.237Z,5.63
2023-01-31T01:02:47.845Z,5.32
2023-01-31T01:04:50.443Z,5.70
2023-01-31T01:06:56.058Z,5.28
2023-01-31T01:08:59.880Z,5.20
2023-01-31T01:11:06.829Z,4.80
2023-01-31T01:13:10.721Z,5.63
2023-01-31T01:15:13.279Z,5.20
2023-01-31T01:17:15.866Z,6.15
2023-01-31T01:19:20.586Z,4.65
2023-01-31T01:21:25.117Z,5.18
2023-01-31T01:23:27.710Z,5.18
2023-01-31T01:25:30.476Z,5.10
2023-01-31T01:27:34.353Z,4.38
2023-01-31T01:29:39.274Z,5.78
2023-01-31T01:31:42.171Z,5.55
2023-01-31T01:33:45.745Z,4.93
2023-01-31T01:35:48.396Z,4.70
2023-01-31T01:37:50.967Z,4.45
2023-01-31T01:39:54.085Z,5.30
2023-01-31T01:41:57.595Z,4.95
2023-01-31T01:44:01.297Z,4.82
2023-01-31T01:46:05.531Z,4.82
2023-01-31T01:48:09.540Z,4.78
2023-01-31T01:50:16.553Z,4.57
2023-01-31T01:52:20.859Z,4.90
2023-01-31T01:54:27.476Z,4.65
2023-01-31T01:56:34.295Z,4.57
2023-01-31T01:58:43.408Z,4.68
2023-01-31T02:00:47.572Z,5.32
2023-01-31T02:02:56.537Z,4.10
2023-01-31T02:04:59.177Z,4.75
2023-01-31T02:07:02.770Z,4.97
2023-01-31T02:09:08.864Z,4.82
2023-01-31T02:11:18.075Z,3.90
2023-01-31T02:13:21.973Z,4.63
2023-01-31T02:15:25.904Z,4.50
2023-01-31T02:17:29.191Z,4.45
2023-01-31T02:19:41.141Z,4.88
2023-01-31T02:24:31.243Z,5.07
2023-01-31T02:27:12.146Z,4.40
2023-01-31T02:29:35.267Z,5.65
2023-01-31T02:32:16.424Z,4.43
2023-01-31T02:34:33.238Z,4.45
2023-01-31T02:36:47.575Z,4.18
2023-01-31T02:39:00.640Z,4.70
2023-01-31T02:41:14.162Z,4.65
2023-01-31T02:43:22.703Z,4.35
2023-01-31T02:45:35.256Z,4.80
2023-01-31T02:47:51.265Z,4.60
2023-01-31T02:49:58.972Z,4.85
2023-01-31T02:52:17.465Z,4.90
2023-01-31T02:54:45.505Z,5.55
2023-01-31T02:56:50.260Z,4.80
2023-01-31T02:58:57.541Z,4.50
2023-01-31T03:01:04.350Z,4.60
2023-01-31T03:03:16.669Z,5.22
2023-01-31T03:05:21.647Z,4.60
2023-01-31T03:07:29.385Z,4.90
2023-01-31T03:09:40.757Z,4.32
2023-01-31T03:11:53.341Z,5.50
2023-01-31T03:14:04.211Z,4.97
2023-01-31T03:16:36.658Z,5.50
2023-01-31T03:18:45.358Z,4.57
2023-01-31T03:20:54.056Z,4.50
2023-01-31T03:23:00.987Z,4.90
2023-01-31T03:25:07.389Z,4.50
2023-01-31T03:27:11.772Z,4.65
2023-01-31T03:29:17.607Z,4.75
2023-01-31T03:31:24.981Z,4.78
2023-01-31T03:33:31.705Z,4.70
2023-01-31T03:35:37.605Z,4.60
2023-01-31T03:37:49.000Z,5.22
2023-01-31T03:39:57.381Z,4.32
2023-01-31T03:42:07.450Z,4.55
2023-01-31T03:44:16.104Z,4.80
2023-01-31T03:46:24.207Z,4.78
2023-01-31T03:48:34.928Z,5.53
2023-01-31T03:50:40.505Z,4.85
2023-01-31T03:52:52.502Z,4.80
2023-01-31T03:55:02.495Z,5.60
2023-01-31T03:57:10.264Z,4.80
2023-01-31T03:59:16.558Z,4.97
2023-01-31T04:01:20.689Z,5.35
2023-01-31T04:03:29.409Z,5.85
2023-01-31T04:05:33.589Z,4.97
2023-01-31T04:07:37.476Z,4.95
2023-01-31T04:09:42.861Z,4.38
2023-01-31T04:11:49.655Z,4.85
2023-01-31T04:13:52.305Z,5.38
2023-01-31T04:15:54.969Z,4.88
2023-01-31T04:17:59.797Z,5.45
2023-01-31T04:20:03.099Z,5.18
2023-01-31T04:22:05.692Z,5.13
2023-01-31T04:24:09.506Z,5.72
2023-01-31T04:26:13.501Z,5.85
2023-01-31T04:28:16.108Z,4.57
2023-01-31T04:30:19.339Z,5.35
2023-01-31T04:32:21.879Z,5.32
2023-01-31T04:34:24.452Z,5.45
2023-01-31T04:36:27.100Z,5.80
2023-01-31T04:38:29.753Z,5.78
2023-01-31T04:40:32.290Z,5.60
2023-01-31T04:42:39.077Z,5.05
2023-01-31T04:44:41.621Z,5.47
2023-01-31T04:46:44.238Z,5.50
2023-01-31T04:48:46.860Z,5.60
2023-01-31T04:50:49.506Z,5.70
2023-01-31T04:52:52.777Z,6.10
2023-01-31T04:54:55.312Z,5.45
2023-01-31T04:56:57.954Z,5.00
2023-01-31T04:59:02.147Z,6.20
2023-01-31T05:01:04.746Z,5.70
2023-01-31T05:03:07.470Z,5.43
2023-01-31T05:05:12.737Z,5.03
2023-01-31T05:07:15.278Z,5.15
2023-01-31T05:09:17.993Z,6.65
2023-01-31T05:11:20.821Z,5.50
2023-01-31T05:13:24.194Z,5.38
2023-01-31T05:15:28.202Z,5.85
2023-01-31T05:17:30.763Z,5.65
2023-01-31T05:19:33.965Z,5.43
2023-01-31T05:21:54.907Z,5.47
2023-01-31T05:23:57.543Z,5.93
2023-01-31T05:26:00.593Z,5.22
2023-01-31T05:28:03.355Z,5.72
2023-01-31T05:30:07.250Z,5.30
2023-01-31T05:32:11.607Z,4.88
2023-01-31T05:34:16.023Z,5.20
2023-01-31T05:36:18.588Z,5.65
2023-01-31T05:38:21.214Z,5.75
2023-01-31T05:40:24.017Z,5.68
2023-01-31T05:42:26.654Z,5.93
2023-01-31T05:44:29.210Z,5.32
2023-01-31T05:46:32.337Z,5.72
2023-01-31T05:48:36.986Z,5.93
2023-01-31T05:50:39.690Z,8.52
2023-01-31T05:52:42.264Z,6.57
2023-01-31T05:54:44.849Z,6.05
2023-01-31T05:56:47.392Z,5.70
2023-01-31T05:58:51.032Z,6.15
2023-01-31T06:00:56.434Z,6.35
2023-01-31T06:03:00.012Z,6.15
2023-01-31T06:05:04.166Z,6.50
2023-01-31T06:07:07.071Z,5.80
2023-01-31T06:09:11.606Z,6.15
2023-01-31T06:11:14.932Z,6.45
2023-01-31T06:13:17.552Z,5.60
2023-01-31T06:15:20.244Z,6.13
2023-01-31T06:17:24.017Z,5.90
2023-01-31T06:19:26.622Z,5.93
2023-01-31T06:21:30.908Z,6.13
2023-01-31T06:23:34.421Z,6.47
2023-01-31T06:25:37.119Z,5.65
2023-01-31T06:27:39.685Z,6.03
2023-01-31T06:29:42.222Z,5.50
2023-01-31T06:31:45.889Z,5.60
2023-01-31T06:33:48.731Z,5.63
2023-01-31T06:35:51.350Z,6.43
2023-01-31T06:37:55.931Z,5.78
2023-01-31T06:39:59.214Z,5.60
2023-01-31T06:42:01.774Z,5.65
2023-01-31T06:44:04.352Z,6.25
2023-01-31T06:46:06.947Z,5.32
2023-01-31T06:48:11.933Z,6.25
2023-01-31T06:50:14.934Z,6.53
2023-01-31T06:52:17.559Z,5.78
2023-01-31T06:54:21.495Z,5.97
2023-01-31T06:56:24.666Z,5.82
2023-01-31T06:58:28.034Z,6.05
2023-01-31T07:00:31.510Z,5.55
2023-01-31T07:02:34.292Z,6.35
2023-01-31T07:04:36.932Z,6.32
2023-01-31T07:06:39.518Z,6.65
2023-01-31T07:08:42.156Z,6.22
2023-01-31T07:10:46.038Z,6.07
2023-01-31T07:12:48.665Z,5.72
2023-01-31T07:14:51.980Z,5.60
2023-01-31T07:16:54.669Z,6.10
2023-01-31T07:18:57.323Z,6.57
2023-01-31T07:20:59.868Z,5.70
2023-01-31T07:23:02.469Z,6.18
2023-01-31T07:25:05.768Z,6.32
2023-01-31T07:27:10.405Z,5.80
2023-01-31T07:29:12.991Z,6.07
2023-01-31T07:31:16.149Z,6.35
2023-01-31T07:33:18.750Z,6.38
2023-01-31T07:35:22.087Z,6.80
2023-01-31T07:37:24.821Z,5.95
2023-01-31T07:39:27.427Z,6.28
2023-01-31T07:41:30.116Z,5.72
2023-01-31T07:43:34.161Z,5.88
2023-01-31T07:45:37.036Z,6.47
2023-01-31T07:47:39.864Z,6.55
2023-01-31T07:49:42.406Z,5.90
2023-01-31T07:51:45.064Z,5.80
2023-01-31T07:53:47.841Z,5.30
2023-01-31T07:55:50.593Z,5.60
2023-01-31T07:57:53.167Z,6.10
2023-01-31T07:59:57.056Z,5.85
2023-01-31T08:02:17.027Z,5.75
2023-01-31T08:04:22.601Z,7.25
2023-01-31T08:06:25.430Z,5.97
2023-01-31T08:08:27.967Z,5.88
2023-01-31T08:10:30.801Z,5.82
2023-01-31T08:12:33.433Z,5.68
2023-01-31T08:14:36.040Z,6.15
2023-01-31T08:16:39.976Z,5.75
2023-01-31T08:18:42.802Z,5.53
2023-01-31T08:20:45.359Z,5.20
2023-01-31T08:22:47.921Z,5.18
2023-01-31T08:24:50.543Z,5.57
2023-01-31T08:26:53.242Z,5.28
2023-01-31T08:28:55.941Z,5.70
2023-01-31T08:31:08.264Z,5.40
2023-01-31T08:33:12.949Z,4.70
2023-01-31T08:35:15.709Z,5.95
2023-01-31T08:37:18.673Z,5.00
2023-01-31T08:39:21.398Z,5.10
2023-01-31T08:41:25.264Z,4.57
2023-01-31T08:43:27.845Z,5.65
2023-01-31T08:45:31.604Z,4.22
2023-01-31T08:47:34.236Z,5.25
2023-01-31T08:49:39.158Z,4.93
2023-01-31T08:51:41.796Z,6.05
2023-01-31T08:53:46.102Z,5.03
2023-01-31T08:55:48.900Z,4.68
2023-01-31T08:57:59.362Z,5.10
2023-01-31T09:00:02.687Z,4.65
2023-01-31T09:02:05.280Z,5.18
2023-01-31T09:04:09.254Z,4.43
2023-01-31T09:06:15.724Z,4.30
2023-01-31T09:08:18.340Z,5.13
2023-01-31T09:10:22.608Z,4.68
2023-01-31T09:12:25.160Z,4.40
2023-01-31T09:14:27.727Z,4.85
2023-01-31T09:16:30.274Z,5.68
2023-01-31T09:18:34.197Z,4.53
2023-01-31T09:20:36.815Z,4.65
2023-01-31T09:22:40.833Z,4.65
2023-01-31T09:24:43.369Z,4.63
2023-01-31T09:26:45.977Z,4.78
2023-01-31T09:28:50.837Z,5.60
2023-01-31T09:30:54.064Z,5.07
2023-01-31T09:32:56.619Z,4.57
2023-01-31T09:34:59.167Z,4.97
2023-01-31T09:37:01.743Z,4.78
2023-01-31T09:39:05.666Z,4.68
2023-01-31T09:41:20.240Z,3.72
2023-01-31T09:43:25.833Z,5.35
2023-01-31T09:45:33.145Z,4.72
2023-01-31T09:47:38.936Z,4.18
2023-01-31T09:49:47.247Z,3.58
2023-01-31T09:51:55.615Z,4.18
2023-01-31T09:53:58.619Z,4.15
2023-01-31T09:56:15.101Z,3.85
2023-01-31T09:58:27.255Z,3.80
2023-01-31T10:00:35.954Z,4.95
2023-01-31T10:03:01.671Z,4.45
2023-01-31T10:05:15.607Z,4.60
2023-01-31T10:07:25.053Z,3.97
2023-01-31T10:09:33.589Z,4.40
2023-01-31T10:11:44.316Z,4.35
2023-01-31T10:13:51.266Z,3.90
2023-01-31T10:15:59.034Z,3.38
2023-01-31T10:18:07.342Z,3.58
2023-01-31T10:20:19.494Z,3.45
2023-01-31T10:22:31.544Z,3.60
2023-01-31T10:26:45.258Z,3.72
2023-01-31T10:28:54.298Z,3.97
2023-01-31T10:31:02.166Z,4.10
2023-01-31T10:33:18.287Z,3.83
2023-01-31T10:35:25.567Z,4.00
2023-01-31T10:37:36.139Z,3.83
2023-01-31T10:39:43.823Z,3.80
2023-01-31T10:42:05.263Z,3.90
2023-01-31T10:44:17.761Z,3.90
2023-01-31T10:46:20.491Z,4.47
2023-01-31T10:48:26.224Z,3.85
2023-01-31T10:50:34.174Z,4.38
2023-01-31T10:53:06.215Z,4.15
2023-01-31T10:55:30.798Z,4.03
2023-01-31T10:57:35.421Z,3.53
2023-01-31T10:59:42.486Z,5.22
2023-01-31T11:01:45.139Z,3.42
2023-01-31T11:03:51.211Z,3.78
2023-01-31T11:05:55.753Z,3.33
2023-01-31T11:07:59.945Z,3.45
2023-01-31T11:10:22.605Z,3.30
2023-01-31T11:15:08.914Z,3.17
2023-01-31T11:17:18.195Z,3.42
2023-01-31T11:19:28.271Z,3.50
2023-01-31T11:21:33.766Z,3.53
2023-01-31T11:23:38.007Z,3.35
2023-01-31T11:25:40.647Z,2.92
2023-01-31T11:27:44.867Z,3.00
2023-01-31T11:29:51.429Z,3.22
2023-01-31T11:31:56.964Z,3.00
2023-01-31T11:34:01.275Z,3.28
2023-01-31T11:36:09.513Z,2.80
2023-01-31T11:38:23.601Z,3.25
2023-01-31T11:40:31.899Z,3.65
2023-01-31T11:42:34.545Z,3.00
2023-01-31T11:44:37.227Z,3.03
2023-01-31T11:46:45.365Z,3.00
2023-01-31T11:48:49.369Z,2.53
2023-01-31T11:50:54.843Z,2.60
2023-01-31T11:52:59.273Z,2.80
2023-01-31T11:55:06.311Z,2.63
2023-01-31T11:57:16.342Z,3.42
2023-01-31T11:59:23.476Z,2.92
2023-01-31T12:01:27.589Z,3.63
2023-01-31T12:03:31.640Z,3.13
2023-01-31T12:05:39.989Z,2.70
2023-01-31T12:07:45.415Z,2.70
2023-01-31T12:09:48.271Z,2.35
2023-01-31T12:11:53.242Z,2.97
2023-01-31T12:14:03.355Z,2.60
2023-01-31T12:16:07.497Z,3.10
2023-01-31T12:18:12.677Z,2.67
2023-01-31T12:20:29.843Z,3.88
2023-01-31T12:22:40.897Z,3.10
2023-01-31T12:24:55.312Z,3.05
2023-01-31T12:27:05.006Z,2.35
2023-01-31T12:29:25.450Z,2.50
2023-01-31T12:31:44.210Z,2.67
2023-01-31T12:34:01.491Z,3.00
2023-01-31T12:36:17.802Z,2.47
2023-01-31T12:38:40.203Z,2.45
2023-01-31T12:40:51.079Z,3.22
2023-01-31T12:42:59.093Z,3.20
2023-01-31T12:45:17.197Z,3.10
2023-01-31T12:47:48.081Z,2.80
2023-01-31T12:50:16.544Z,3.30
2023-01-31T12:52:25.668Z,2.92
2023-01-31T12:54:45.804Z,3.85
2023-01-31T12:57:00.693Z,2.75
2023-01-31T12:59:16.273Z,2.78
2023-01-31T13:01:28.543Z,2.78
2023-01-31T13:03:39.335Z,3.22
2023-01-31T13:05:45.176Z,3.10
2023-01-31T13:07:53.023Z,2.95
2023-01-31T13:09:59.944Z,3.40
2023-01-31T13:12:08.336Z,2.95
2023-01-31T13:14:16.235Z,3.10
2023-01-31T13:16:23.648Z,2.88
2023-01-31T13:18:27.284Z,2.92
2023-01-31T13:20:35.758Z,3.05
2023-01-31T13:22:47.177Z,3.15
2023-01-31T13:24:59.928Z,4.15
2023-01-31T13:27:10.754Z,2.97
2023-01-31T13:29:18.562Z,3.45
2023-01-31T13:31:25.880Z,3.60
2023-01-31T13:33:35.799Z,3.33
2023-01-31T13:35:42.815Z,3.92
2023-01-31T13:37:48.043Z,3.28
2023-01-31T13:39:54.422Z,4.15
2023-01-31T13:41:57.034Z,4.40
2023-01-31T13:44:02.944Z,3.70
2023-01-31T13:46:09.439Z,3.72
2023-01-31T13:48:22.514Z,4.22
2023-01-31T13:50:35.042Z,3.88
2023-01-31T13:52:42.565Z,3.88
2023-01-31T13:54:49.835Z,4.25
2023-01-31T13:56:55.107Z,3.58
2023-01-31T13:58:58.098Z,3.67
2023-01-31T14:01:07.135Z,3.58
2023-01-31T14:03:11.999Z,3.92
2023-01-31T14:05:49.072Z,3.63
2023-01-31T14:08:31.912Z,3.50
2023-01-31T14:10:43.151Z,3.45
2023-01-31T14:12:45.731Z,3.72
2023-01-31T14:14:49.451Z,3.58
2023-01-31T14:16:53.520Z,4.25
2023-01-31T14:18:56.135Z,4.25
2023-01-31T14:20:58.656Z,4.22
2023-01-31T14:23:30.775Z,4.95
2023-01-31T14:27:48.003Z,3.78
2023-01-31T14:29:57.746Z,4.38
2023-01-31T14:32:01.720Z,3.85
2023-01-31T14:34:06.304Z,3.60
2023-01-31T14:36:37.194Z,4.50
2023-01-31T14:39:05.742Z,3.50
2023-01-31T14:41:16.355Z,4.13
2023-01-31T14:43:31.450Z,4.20
2023-01-31T14:46:11.844Z,4.20
2023-01-31T14:48:26.583Z,3.67
2023-01-31T14:50:42.992Z,4.20
2023-01-31T14:53:02.079Z,4.10
2023-01-31T14:55:40.053Z,4.25
2023-01-31T14:57:45.516Z,3.85
2023-01-31T14:59:56.566Z,3.70
2023-01-31T15:01:59.715Z,3.78
2023-01-31T15:04:05.270Z,3.78
2023-01-31T15:06:11.554Z,4.07
2023-01-31T15:08:49.240Z,4.07
2023-01-31T15:10:58.879Z,3.65
2023-01-31T15:13:01.594Z,4.28
2023-01-31T15:15:05.489Z,4.07
2023-01-31T15:17:27.649Z,4.53
2023-01-31T15:19:47.076Z,3.58
2023-01-31T15:21:51.995Z,4.32
2023-01-31T15:23:56.003Z,4.50
2023-01-31T15:26:00.549Z,4.15
2023-01-31T15:28:05.960Z,3.88
2023-01-31T15:30:14.741Z,4.43
2023-01-31T15:32:22.042Z,4.65
2023-01-31T15:34:31.764Z,4.28
2023-01-31T15:36:44.464Z,3.80
2023-01-31T15:38:53.170Z,4.07
2023-01-31T15:41:18.137Z,3.92
2023-01-31T15:43:23.927Z,3.88
2023-01-31T15:45:29.656Z,4.53
2023-01-31T15:47:32.861Z,3.60
2023-01-31T15:49:44.226Z,4.05
2023-01-31T15:52:03.560Z,4.25
2023-01-31T15:54:08.407Z,4.22
2023-01-31T15:56:19.722Z,4.55
2023-01-31T15:58:25.397Z,4.45
2023-01-31T16:00:30.879Z,4.07
2023-01-31T16:02:34.447Z,4.45
2023-01-31T16:04:41.162Z,3.97
2023-01-31T16:06:43.819Z,4.20
2023-01-31T16:08:53.537Z,4.15
2023-01-31T16:10:57.324Z,4.63
2023-01-31T16:13:02.475Z,4.20
2023-01-31T16:15:08.759Z,4.95
2023-01-31T16:19:35.831Z,4.35
2023-01-31T16:21:42.416Z,3.55
2023-01-31T16:23:45.644Z,4.43
2023-01-31T16:25:54.180Z,4.30
2023-01-31T16:28:02.231Z,4.82
2023-01-31T16:30:07.039Z,4.65
2023-01-31T16:32:17.795Z,4.95
2023-01-31T16:34:25.452Z,4.72
2023-01-31T16:36:32.060Z,4.82
2023-01-31T16:38:35.633Z,5.22
2023-01-31T16:40:47.723Z,4.43
2023-01-31T16:42:51.820Z,4.97
2023-01-31T16:44:54.427Z,4.57
2023-01-31T16:46:57.040Z,4.80
2023-01-31T16:49:04.388Z,5.18
2023-01-31T16:51:51.775Z,4.45
2023-01-31T16:54:17.054Z,4.93
2023-01-31T16:56:22.140Z,5.20
2023-01-31T17:00:56.660Z,5.35
2023-01-31T17:03:01.066Z,5.40
2023-01-31T17:05:16.810Z,5.10
2023-01-31T17:07:22.187Z,5.38
2023-01-31T17:09:24.802Z,5.65
2023-01-31T17:11:41.675Z,4.88
2023-01-31T17:13:45.531Z,5.60
2023-01-31T17:15:48.575Z,5.80
2023-01-31T17:17:52.561Z,5.35
2023-01-31T17:19:55.315Z,5.45
2023-01-31T17:21:59.211Z,5.13
2023-01-31T17:24:01.753Z,4.95
2023-01-31T17:26:04.593Z,5.57
2023-01-31T17:28:07.904Z,5.55
2023-01-31T17:30:11.551Z,5.32
2023-01-31T17:32:16.059Z,5.22
2023-01-31T17:34:19.978Z,5.47
2023-01-31T17:36:22.577Z,5.00
2023-01-31T17:38:27.106Z,5.05
2023-01-31T17:40:30.048Z,5.40
2023-01-31T17:42:32.716Z,4.65
2023-01-31T17:44:35.266Z,5.45
2023-01-31T17:46:37.814Z,5.45
2023-01-31T17:48:40.454Z,5.45
2023-01-31T17:50:46.332Z,5.53
2023-01-31T17:52:49.597Z,5.40
2023-01-31T17:54:52.107Z,5.45
2023-01-31T17:56:54.892Z,5.38
2023-01-31T17:58:57.458Z,4.75
2023-01-31T18:01:00.015Z,4.60
2023-01-31T18:03:02.628Z,5.35
2023-01-31T18:05:05.872Z,4.47
2023-01-31T18:07:09.826Z,5.05
2023-01-31T18:09:15.612Z,5.07
2023-01-31T18:11:18.544Z,5.07
2023-01-31T18:13:21.134Z,5.15
2023-01-31T18:15:23.743Z,5.15
2023-01-31T18:17:26.542Z,4.70
2023-01-31T18:19:29.319Z,5.13
2023-01-31T18:21:31.932Z,4.55
2023-01-31T18:23:35.890Z,5.18
2023-01-31T18:25:41.719Z,5.07
2023-01-31T18:27:44.312Z,5.13
2023-01-31T18:29:47.014Z,4.55
2023-01-31T18:31:50.060Z,5.38
2023-01-31T18:33:52.872Z,5.13
2023-01-31T18:35:58.744Z,4.72
2023-01-31T18:38:01.429Z,4.80
2023-01-31T18:40:06.228Z,5.35
2023-01-31T18:42:08.831Z,4.85
2023-01-31T18:44:11.461Z,4.90
2023-01-31T18:46:14.543Z,5.30
2023-01-31T18:48:17.117Z,4.97
2023-01-31T18:50:19.853Z,4.18
2023-01-31T18:52:22.418Z,4.57
2023-01-31T18:54:25.206Z,4.78
2023-01-31T18:56:30.340Z,5.20
2023-01-31T18:58:36.619Z,5.13
2023-01-31T19:00:39.241Z,5.22
2023-01-31T19:02:41.873Z,4.75
2023-01-31T19:04:44.440Z,5.15
2023-01-31T19:06:51.128Z,4.85
2023-01-31T19:08:55.780Z,5.32
2023-01-31T19:11:03.951Z,4.68
2023-01-31T19:13:07.895Z,5.00
2023-01-31T19:15:12.754Z,5.28
2023-01-31T19:17:15.882Z,4.85
2023-01-31T19:19:18.524Z,4.38
2023-01-31T19:21:23.191Z,5.40
2023-01-31T19:23:26.695Z,4.80
2023-01-31T19:25:29.294Z,4.53
2023-01-31T19:27:31.862Z,4.57
2023-01-31T19:29:35.782Z,5.47
2023-01-31T19:31:38.390Z,4.82
2023-01-31T19:33:41.429Z,4.90
2023-01-31T19:35:43.999Z,4.35
2023-01-31T19:37:46.569Z,4.88
2023-01-31T19:39:49.109Z,5.35
2023-01-31T19:41:51.659Z,4.75
2023-01-31T19:43:56.186Z,3.90
2023-01-31T19:46:00.207Z,4.75
2023-01-31T19:48:02.906Z,4.45
2023-01-31T19:50:06.700Z,4.60
2023-01-31T19:52:09.420Z,5.05
2023-01-31T19:54:16.053Z,4.88
2023-01-31T19:56:18.594Z,4.80
2023-01-31T19:58:21.262Z,4.72
2023-01-31T20:00:24.105Z,4.93
2023-01-31T20:02:28.098Z,5.18
2023-01-31T20:04:32.411Z,4.88
2023-01-31T20:06:35.766Z,4.75
2023-01-31T20:08:38.568Z,4.72
2023-01-31T20:10:41.177Z,4.72
2023-01-31T20:12:45.378Z,5.05
2023-01-31T20:14:47.923Z,4.97
2023-01-31T20:16:50.641Z,5.32
2023-01-31T20:18:56.140Z,4.60
2023-01-31T20:20:58.979Z,4.57
2023-01-31T20:23:01.577Z,4.40
2023-01-31T20:25:04.565Z,4.63
2023-01-31T20:27:07.153Z,4.43
2023-01-31T20:29:10.040Z,4.85
2023-01-31T20:31:14.626Z,5.05
2023-01-31T20:33:18.054Z,4.43
2023-01-31T20:35:22.046Z,4.55
2023-01-31T20:37:24.721Z,3.92
2023-01-31T20:39:27.296Z,4.97
2023-01-31T20:41:29.955Z,5.00
2023-01-31T20:43:32.546Z,4.93
2023-01-31T20:45:35.330Z,4.38
2023-01-31T20:47:37.994Z,5.72
2023-01-31T20:49:40.558Z,5.30
2023-01-31T20:51:44.446Z,5.15
2023-01-31T20:53:47.030Z,5.60
2023-01-31T20:55:55.662Z,5.28
2023-01-31T20:57:58.510Z,5.07
2023-01-31T21:00:01.062Z,4.97
2023-01-31T21:02:03.682Z,4.75
2023-01-31T21:04:07.914Z,5.50
2023-01-31T21:06:10.782Z,5.93
2023-01-31T21:08:14.766Z,5.05
2023-01-31T21:10:18.109Z,5.00
2023-01-31T21:12:20.737Z,4.80
2023-01-31T21:14:23.288Z,5.15
2023-01-31T21:16:25.986Z,5.22
2023-01-31T21:18:31.039Z,4.95
2023-01-31T21:20:33.563Z,5.20
2023-01-31T21:22:36.153Z,4.82
2023-01-31T21:24:40.108Z,5.15
2023-01-31T21:26:42.875Z,4.78
2023-01-31T21:28:45.576Z,5.30
2023-01-31T21:30:58.506Z,4.80
2023-01-31T21:33:01.136Z,5.03
2023-01-31T21:35:03.693Z,4.70
2023-01-31T21:37:06.275Z,5.38
2023-01-31T21:39:09.001Z,5.60
2023-01-31T21:41:31.342Z,4.78
2023-01-31T21:43:33.858Z,5.00
2023-01-31T21:45:42.398Z,5.10
2023-01-31T21:48:01.610Z,6.47
2023-01-31T21:50:04.271Z,4.97
2023-01-31T21:52:07.746Z,5.22
2023-01-31T21:54:10.369Z,5.30
2023-01-31T21:56:16.111Z,4.70
2023-01-31T21:58:18.631Z,4.70
2023-01-31T22:00:22.234Z,4.35
2023-01-31T22:02:25.065Z,4.85
2023-01-31T22:04:27.668Z,4.35
2023-01-31T22:06:35.527Z,4.97
2023-01-31T22:08:38.562Z,5.40
2023-01-31T22:10:41.134Z,5.07
2023-01-31T22:12:45.074Z,6.05
2023-01-31T22:14:47.641Z,5.13
2023-01-31T22:16:51.836Z,5.40
2023-01-31T22:18:54.827Z,5.63
2023-01-31T22:21:05.293Z,5.93
2023-01-31T22:23:07.860Z,5.40
2023-01-31T22:25:10.979Z,5.60
2023-01-31T22:27:13.707Z,4.93
2023-01-31T22:29:17.583Z,4.68
2023-01-31T22:31:20.549Z,4.88
2023-01-31T22:33:23.288Z,4.93
2023-01-31T22:35:28.967Z,4.72
2023-01-31T22:37:31.585Z,4.45
2023-01-31T22:39:34.162Z,4.25
2023-01-31T22:41:36.769Z,4.47
2023-01-31T22:43:42.056Z,4.22
2023-01-31T22:45:46.982Z,3.75
2023-01-31T22:47:49.508Z,4.85
2023-01-31T22:49:52.061Z,4.07
2023-01-31T22:51:54.650Z,3.75
2023-01-31T22:53:58.901Z,3.85
2023-01-31T22:56:02.689Z,4.15
2023-01-31T22:58:05.351Z,4.05
2023-01-31T23:00:09.420Z,4.18
2023-01-31T23:02:13.351Z,4.53
2023-01-31T23:04:17.097Z,4.75
2023-01-31T23:06:19.761Z,4.25
2023-01-31T23:08:22.396Z,4.03
2023-01-31T23:10:26.346Z,4.60
2023-01-31T23:12:29.110Z,4.53
2023-01-31T23:14:32.008Z,5.13
2023-01-31T23:16:52.091Z,5.10
2023-01-31T23:18:56.315Z,5.22
2023-01-31T23:21:07.198Z,4.93
2023-01-31T23:23:09.781Z,5.47
2023-01-31T23:25:14.475Z,5.97
2023-01-31T23:27:17.001Z,5.13
2023-01-31T23:29:19.576Z,4.93
2023-01-31T23:31:22.269Z,5.22
2023-01-31T23:33:25.068Z,5.22
2023-01-31T23:35:29.126Z,4.70
2023-01-31T23:37:31.709Z,4.43
2023-01-31T23:39:34.317Z,4.90
2023-01-31T23:41:36.851Z,4.70
2023-01-31T23:43:39.433Z,5.22
2023-01-31T23:45:43.417Z,4.88
2023-01-31T23:47:46.013Z,4.93
2023-01-31T23:49:48.610Z,4.90
2023-01-31T23:51:52.525Z,4.50
2023-01-31T23:53:55.499Z,5.25
2023-01-31T23:55:58.044Z,4.95
2023-01-31T23:58:00.585Z,4.78
